createdAt,value
2019-06-20T00:00:39.841Z,17.10
2019-06-20T00:03:09.203Z,17.00
2019-06-20T00:05:38.552Z,17.00
2019-06-20T00:08:07.917Z,17.00
2019-06-20T00:10:37.282Z,17.00
2019-06-20T00:13:06.806Z,16.90
2019-06-20T00:15:38.476Z,16.90
2019-06-20T00:18:07.828Z,16.90
2019-06-20T00:20:37.185Z,16.90
2019-06-20T00:23:06.615Z,16.90
2019-06-20T00:25:35.975Z,16.80
2019-06-20T00:28:05.339Z,16.80
2019-06-20T00:30:34.700Z,16.80
2019-06-20T00:33:04.063Z,16.70
2019-06-20T00:35:33.424Z,16.70
2019-06-20T00:38:02.786Z,16.60
2019-06-20T00:40:32.141Z,16.70
2019-06-20T00:43:16.406Z,16.70
2019-06-20T00:45:32.584Z,16.60
2019-06-20T00:48:01.950Z,16.60
2019-06-20T00:50:31.593Z,16.70
2019-06-20T00:53:01.047Z,16.60
2019-06-20T00:55:30.409Z,16.70
2019-06-20T00:57:59.771Z,16.70
2019-06-20T01:00:29.126Z,16.70
2019-06-20T01:02:58.494Z,16.60
2019-06-20T01:05:27.843Z,16.60
2019-06-20T01:07:57.201Z,16.60
2019-06-20T01:10:26.617Z,16.60
2019-06-20T01:12:56.047Z,16.60
2019-06-20T01:15:25.404Z,16.60
2019-06-20T01:17:54.759Z,16.50
2019-06-20T01:20:25.827Z,16.60
2019-06-20T01:22:55.167Z,16.50
2019-06-20T01:25:42.356Z,16.60
2019-06-20T01:28:11.749Z,16.60
2019-06-20T01:30:41.467Z,16.60
2019-06-20T01:33:10.830Z,16.60
2019-06-20T01:35:40.205Z,16.60
2019-06-20T01:38:09.576Z,16.60
2019-06-20T01:40:39.023Z,16.60
2019-06-20T01:43:08.395Z,16.60
2019-06-20T01:45:37.831Z,16.60
2019-06-20T01:48:07.283Z,16.60
2019-06-20T01:50:36.737Z,16.60
2019-06-20T01:53:06.130Z,16.50
2019-06-20T01:55:35.504Z,16.60
2019-06-20T01:58:04.878Z,16.60
2019-06-20T02:00:47.689Z,16.60
2019-06-20T02:03:17.961Z,16.70
2019-06-20T02:05:47.514Z,16.70
2019-06-20T02:08:17.060Z,16.70
2019-06-20T02:10:46.431Z,16.70
2019-06-20T02:13:15.877Z,16.70
2019-06-20T02:15:45.253Z,16.80
2019-06-20T02:18:14.797Z,16.80
2019-06-20T02:20:53.836Z,16.70
2019-06-20T02:23:24.613Z,16.70
2019-06-20T02:25:54.067Z,16.80
2019-06-20T02:28:24.281Z,16.70
2019-06-20T02:30:53.735Z,16.70
2019-06-20T02:33:23.127Z,16.70
2019-06-20T02:35:52.682Z,16.70
2019-06-20T02:38:22.072Z,16.70
2019-06-20T02:40:51.424Z,16.70
2019-06-20T02:43:20.799Z,16.70
2019-06-20T02:45:50.172Z,16.70
2019-06-20T02:48:19.552Z,16.70
2019-06-20T02:50:48.924Z,16.70
2019-06-20T02:53:18.306Z,16.70
2019-06-20T02:55:47.768Z,16.70
2019-06-20T02:58:17.133Z,16.70
2019-06-20T03:00:57.995Z,16.70
2019-06-20T03:03:29.687Z,16.70
2019-06-20T03:05:59.507Z,16.70
2019-06-20T03:08:29.273Z,16.70
2019-06-20T03:10:58.649Z,16.70
2019-06-20T03:13:28.102Z,16.70
2019-06-20T03:15:57.512Z,16.70
2019-06-20T03:18:26.889Z,16.80
2019-06-20T03:20:56.269Z,16.80
2019-06-20T03:23:25.716Z,16.80
2019-06-20T03:25:55.234Z,16.80
2019-06-20T03:28:24.608Z,16.90
2019-06-20T03:30:54.072Z,16.90
2019-06-20T03:33:23.435Z,16.90
2019-06-20T03:35:52.812Z,16.90
2019-06-20T03:38:22.189Z,16.90
2019-06-20T03:40:51.571Z,16.90
2019-06-20T03:43:21.032Z,17.00
2019-06-20T03:45:50.410Z,17.00
2019-06-20T03:48:19.789Z,17.00
2019-06-20T03:50:49.170Z,17.00
2019-06-20T03:53:18.710Z,17.10
2019-06-20T03:55:48.088Z,17.10
2019-06-20T03:58:17.462Z,17.10
2019-06-20T04:00:46.854Z,17.20
2019-06-20T04:03:16.236Z,17.10
2019-06-20T04:05:45.607Z,17.20
2019-06-20T04:08:15.081Z,17.20
2019-06-20T04:10:44.456Z,17.20
2019-06-20T04:13:13.828Z,17.20
2019-06-20T04:15:43.224Z,17.20
2019-06-20T04:18:12.603Z,17.20
2019-06-20T04:20:41.985Z,17.20
2019-06-20T04:23:11.376Z,17.20
2019-06-20T04:25:40.801Z,17.20
2019-06-20T04:28:10.211Z,17.30
2019-06-20T04:30:39.583Z,17.30
2019-06-20T04:33:08.958Z,17.30
2019-06-20T04:35:38.332Z,17.30
2019-06-20T04:38:07.764Z,17.30
2019-06-20T04:40:37.209Z,17.40
2019-06-20T04:43:06.766Z,17.40
2019-06-20T04:45:37.783Z,17.40
2019-06-20T04:48:07.247Z,17.40
2019-06-20T04:50:36.624Z,17.40
2019-06-20T04:53:06.000Z,17.50
2019-06-20T04:55:35.464Z,17.50
2019-06-20T04:58:04.854Z,17.50
2019-06-20T05:00:34.237Z,17.60
2019-06-20T05:03:03.592Z,17.60
2019-06-20T05:05:32.975Z,17.60
2019-06-20T05:08:02.350Z,17.60
2019-06-20T05:10:31.739Z,17.60
2019-06-20T05:13:01.123Z,17.60
2019-06-20T05:15:30.588Z,17.70
2019-06-20T05:17:59.960Z,17.80
2019-06-20T05:20:29.338Z,17.80
2019-06-20T05:22:58.739Z,17.80
2019-06-20T05:25:28.345Z,17.90
2019-06-20T05:27:57.680Z,17.90
2019-06-20T05:30:27.054Z,17.90
2019-06-20T05:32:56.433Z,17.90
2019-06-20T05:35:25.813Z,17.90
2019-06-20T05:37:55.287Z,17.90
2019-06-20T05:40:24.655Z,17.90
2019-06-20T05:42:54.382Z,18.00
2019-06-20T05:45:24.033Z,18.00
2019-06-20T05:47:53.410Z,18.10
2019-06-20T05:50:22.784Z,18.10
2019-06-20T05:52:53.382Z,18.10
2019-06-20T05:55:22.766Z,18.30
2019-06-20T05:57:52.141Z,18.30
2019-06-20T06:00:22.179Z,18.40
2019-06-20T06:02:51.592Z,18.30
2019-06-20T06:05:20.966Z,18.40
2019-06-20T06:07:50.347Z,18.50
2019-06-20T06:10:20.147Z,18.60
2019-06-20T06:12:49.660Z,18.60
2019-06-20T06:15:20.607Z,18.70
2019-06-20T06:17:49.952Z,18.80
2019-06-20T06:20:21.102Z,18.80
2019-06-20T06:22:50.490Z,18.70
2019-06-20T06:25:19.933Z,18.80
2019-06-20T06:27:49.312Z,18.90
2019-06-20T06:30:19.600Z,18.90
2019-06-20T06:32:48.974Z,18.90
2019-06-20T06:35:18.872Z,18.80
2019-06-20T06:37:48.256Z,18.80
2019-06-20T06:40:18.832Z,18.80
2019-06-20T06:42:48.207Z,18.80
2019-06-20T06:45:18.495Z,18.80
2019-06-20T06:47:47.872Z,18.70
2019-06-20T06:50:18.201Z,18.70
2019-06-20T06:52:47.620Z,18.70
2019-06-20T06:55:17.605Z,18.70
2019-06-20T06:57:46.979Z,18.80
2019-06-20T07:00:17.389Z,18.80
2019-06-20T07:02:46.766Z,19.00
2019-06-20T07:05:16.549Z,19.10
2019-06-20T07:07:45.945Z,19.30
2019-06-20T07:10:17.226Z,19.30
2019-06-20T07:12:46.582Z,19.20
2019-06-20T07:15:16.573Z,19.10
2019-06-20T07:17:45.952Z,19.10
2019-06-20T07:20:16.539Z,19.10
2019-06-20T07:22:45.956Z,19.10
2019-06-20T07:25:15.728Z,19.20
2019-06-20T07:27:45.110Z,19.40
2019-06-20T07:30:15.486Z,19.30
2019-06-20T07:32:44.890Z,19.30
2019-06-20T07:35:14.964Z,19.20
2019-06-20T07:37:44.343Z,19.20
2019-06-20T07:40:14.335Z,19.20
2019-06-20T07:42:43.712Z,19.20
2019-06-20T07:45:13.995Z,19.20
2019-06-20T07:47:43.400Z,19.10
2019-06-20T07:50:16.013Z,19.10
2019-06-20T07:53:00.933Z,19.00
2019-06-20T07:55:16.614Z,18.90
2019-06-20T07:57:45.984Z,18.80
2019-06-20T08:00:16.488Z,18.80
2019-06-20T08:02:45.870Z,18.80
2019-06-20T08:05:15.949Z,18.90
2019-06-20T08:07:45.361Z,19.00
2019-06-20T08:10:17.647Z,19.00
2019-06-20T08:12:47.041Z,19.10
2019-06-20T08:15:17.837Z,19.20
2019-06-20T08:17:47.221Z,19.30
2019-06-20T08:20:18.770Z,19.30
2019-06-20T08:22:48.305Z,19.30
2019-06-20T08:25:19.301Z,19.40
2019-06-20T08:27:56.044Z,19.40
2019-06-20T08:30:33.026Z,19.50
2019-06-20T08:33:07.581Z,19.40
2019-06-20T08:35:34.819Z,19.20
2019-06-20T08:38:05.763Z,19.10
2019-06-20T08:40:38.281Z,19.10
2019-06-20T08:43:07.734Z,19.10
2019-06-20T08:45:40.118Z,19.00
2019-06-20T08:48:09.631Z,18.90
2019-06-20T08:50:40.212Z,18.90
2019-06-20T08:53:09.761Z,19.00
2019-06-20T08:55:39.410Z,19.20
2019-06-20T08:58:08.800Z,19.20
2019-06-20T09:00:39.390Z,19.20
2019-06-20T09:03:09.433Z,19.10
2019-06-20T09:05:39.055Z,19.00
2019-06-20T09:08:11.430Z,19.00
2019-06-20T09:10:43.408Z,19.00
2019-06-20T09:13:13.466Z,19.10
2019-06-20T09:15:43.845Z,19.20
2019-06-20T09:18:14.084Z,19.10
2019-06-20T09:20:43.616Z,19.10
2019-06-20T09:23:12.997Z,18.90
2019-06-20T09:25:42.454Z,18.90
2019-06-20T09:28:12.133Z,18.80
2019-06-20T09:30:42.247Z,18.90
2019-06-20T09:33:11.696Z,18.90
2019-06-20T09:35:41.074Z,19.00
2019-06-20T09:38:10.540Z,19.00
2019-06-20T09:40:39.990Z,19.00
2019-06-20T09:43:09.508Z,19.00
2019-06-20T09:45:39.342Z,19.10
2019-06-20T09:48:08.713Z,19.20
2019-06-20T09:50:38.089Z,19.20
2019-06-20T09:53:07.548Z,19.30
2019-06-20T09:55:37.162Z,19.40
2019-06-20T09:58:07.112Z,19.50
2019-06-20T10:00:38.724Z,19.60
2019-06-20T10:03:08.225Z,19.80
2019-06-20T10:05:37.751Z,19.80
2019-06-20T10:08:07.496Z,19.90
2019-06-20T10:10:38.354Z,20.00
2019-06-20T10:13:07.807Z,20.20
2019-06-20T10:15:38.548Z,20.30
2019-06-20T10:18:08.423Z,20.30
2019-06-20T10:20:39.179Z,20.20
2019-06-20T10:23:08.912Z,20.20
2019-06-20T10:25:38.876Z,20.50
2019-06-20T10:28:08.492Z,20.80
2019-06-20T10:30:37.870Z,20.90
2019-06-20T10:33:07.327Z,20.80
2019-06-20T10:35:36.705Z,20.80
2019-06-20T10:38:06.215Z,20.70
2019-06-20T10:40:35.668Z,20.60
2019-06-20T10:43:05.480Z,20.50
2019-06-20T10:45:36.370Z,20.50
2019-06-20T10:48:06.284Z,20.60
2019-06-20T10:50:35.665Z,20.60
2019-06-20T10:53:05.485Z,20.70
2019-06-20T10:55:34.931Z,20.90
2019-06-20T10:58:04.526Z,21.00
2019-06-20T11:00:33.901Z,21.10
2019-06-20T11:03:03.346Z,21.10
2019-06-20T11:05:32.764Z,21.10
2019-06-20T11:08:02.101Z,21.00
2019-06-20T11:10:32.654Z,20.80
2019-06-20T11:13:02.058Z,20.60
2019-06-20T11:15:31.753Z,20.80
2019-06-20T11:18:01.203Z,20.70
2019-06-20T11:20:31.656Z,20.70
2019-06-20T11:23:01.028Z,20.70
2019-06-20T11:25:30.406Z,20.70
2019-06-20T11:27:59.797Z,20.60
2019-06-20T11:30:48.007Z,20.70
2019-06-20T11:33:04.470Z,20.60
2019-06-20T11:35:35.963Z,20.60
2019-06-20T11:38:05.842Z,20.60
2019-06-20T11:40:36.430Z,20.50
2019-06-20T11:43:06.351Z,20.70
2019-06-20T11:45:37.281Z,20.90
2019-06-20T11:48:07.077Z,21.10
2019-06-20T11:50:37.810Z,21.40
2019-06-20T11:53:07.675Z,21.50
2019-06-20T11:55:37.123Z,21.50
2019-06-20T11:58:06.524Z,21.20
2019-06-20T12:00:35.971Z,21.00
2019-06-20T12:03:06.089Z,21.20
2019-06-20T12:05:35.456Z,21.50
2019-06-20T12:08:05.065Z,21.50
2019-06-20T12:10:34.459Z,21.70
2019-06-20T12:13:03.834Z,21.90
2019-06-20T12:15:33.293Z,22.10
2019-06-20T12:18:02.703Z,22.40
2019-06-20T12:20:32.135Z,22.60
2019-06-20T12:23:01.514Z,22.60
2019-06-20T12:25:30.896Z,22.60
2019-06-20T12:28:00.277Z,23.00
2019-06-20T12:30:30.012Z,23.30
2019-06-20T12:32:59.371Z,23.30
2019-06-20T12:35:28.762Z,23.40
2019-06-20T12:37:58.139Z,23.30
2019-06-20T12:40:27.585Z,23.20
2019-06-20T12:42:57.152Z,23.20
2019-06-20T12:45:26.536Z,23.10
2019-06-20T12:47:55.921Z,22.60
2019-06-20T12:50:25.838Z,22.50
2019-06-20T12:52:55.217Z,22.20
2019-06-20T12:55:24.604Z,22.30
2019-06-20T12:57:54.013Z,22.70
2019-06-20T13:00:25.943Z,22.40
2019-06-20T13:02:55.321Z,22.50
2019-06-20T13:05:26.636Z,22.40
2019-06-20T13:07:55.984Z,22.60
2019-06-20T13:10:25.379Z,22.70
2019-06-20T13:12:54.805Z,23.00
2019-06-20T13:15:24.248Z,23.20
2019-06-20T13:17:53.709Z,23.20
2019-06-20T13:20:23.497Z,23.40
2019-06-20T13:22:52.882Z,23.60
2019-06-20T13:25:22.265Z,23.60
2019-06-20T13:27:51.642Z,23.80
2019-06-20T13:30:21.832Z,23.80
2019-06-20T13:32:51.200Z,23.50
2019-06-20T13:35:21.644Z,23.30
2019-06-20T13:37:51.145Z,23.30
2019-06-20T13:40:22.283Z,23.00
2019-06-20T13:42:54.433Z,22.70
2019-06-20T13:45:27.188Z,22.30
2019-06-20T13:47:56.637Z,22.40
2019-06-20T13:50:27.260Z,22.70
2019-06-20T13:52:56.660Z,22.90
2019-06-20T13:55:26.121Z,22.70
2019-06-20T13:57:55.658Z,22.60
2019-06-20T14:00:26.440Z,22.70
2019-06-20T14:02:55.824Z,22.70
2019-06-20T14:05:25.215Z,22.20
2019-06-20T14:07:55.995Z,22.00
2019-06-20T14:10:25.530Z,22.10
2019-06-20T14:12:54.903Z,21.60
2019-06-20T14:15:24.607Z,22.10
2019-06-20T14:17:54.024Z,22.50
2019-06-20T14:20:23.788Z,22.90
2019-06-20T14:22:54.595Z,23.10
2019-06-20T14:25:24.600Z,23.30
2019-06-20T14:27:54.033Z,23.60
2019-06-20T14:30:23.893Z,23.80
2019-06-20T14:32:53.975Z,24.00
2019-06-20T14:35:24.664Z,24.20
2019-06-20T14:37:55.547Z,24.10
2019-06-20T14:40:25.407Z,24.30
2019-06-20T14:42:54.865Z,24.20
2019-06-20T14:45:24.622Z,24.20
2019-06-20T14:47:55.250Z,24.40
2019-06-20T14:50:24.998Z,24.20
2019-06-20T14:52:54.444Z,24.00
2019-06-20T14:55:23.912Z,23.60
2019-06-20T14:57:54.713Z,23.50
2019-06-20T15:00:26.836Z,23.30
2019-06-20T15:02:58.601Z,22.90
2019-06-20T15:05:27.326Z,23.30
2019-06-20T15:07:56.808Z,23.00
2019-06-20T15:10:26.272Z,22.90
2019-06-20T15:12:56.150Z,23.10
2019-06-20T15:15:25.751Z,23.20
2019-06-20T15:17:56.324Z,23.10
2019-06-20T15:20:26.323Z,23.10
2019-06-20T15:22:56.705Z,23.30
2019-06-20T15:25:26.271Z,23.10
2019-06-20T15:27:57.110Z,22.90
2019-06-20T15:30:26.786Z,23.00
2019-06-20T15:33:07.449Z,23.20
2019-06-20T15:35:27.557Z,23.40
2019-06-20T15:37:57.698Z,23.20
2019-06-20T15:40:27.472Z,23.50
2019-06-20T15:42:58.714Z,23.10
2019-06-20T15:45:27.998Z,23.00
2019-06-20T15:47:57.363Z,23.00
2019-06-20T15:50:27.012Z,22.90
2019-06-20T15:52:56.380Z,23.00
2019-06-20T15:55:26.224Z,23.10
2019-06-20T15:57:55.562Z,23.10
2019-06-20T16:00:27.531Z,23.10
2019-06-20T16:03:09.308Z,23.20
2019-06-20T16:05:28.000Z,23.20
2019-06-20T16:07:57.370Z,23.30
2019-06-20T16:10:26.798Z,23.50
2019-06-20T16:12:56.211Z,23.60
2019-06-20T16:15:25.593Z,23.40
2019-06-20T16:17:55.136Z,23.60
2019-06-20T16:20:24.595Z,23.40
2019-06-20T16:22:53.974Z,23.00
2019-06-20T16:25:23.350Z,22.90
2019-06-20T16:27:53.013Z,22.90
2019-06-20T16:30:23.181Z,22.70
2019-06-20T16:32:52.728Z,22.60
2019-06-20T16:35:22.511Z,22.20
2019-06-20T16:37:51.969Z,22.10
2019-06-20T16:40:31.712Z,21.90
2019-06-20T16:43:01.102Z,21.90
2019-06-20T16:45:30.465Z,21.80
2019-06-20T16:47:59.917Z,21.80
2019-06-20T16:50:29.290Z,21.90
2019-06-20T16:53:01.138Z,21.90
2019-06-20T16:55:29.790Z,21.80
2019-06-20T16:57:59.169Z,21.80
2019-06-20T17:00:29.556Z,21.90
2019-06-20T17:02:58.950Z,21.90
2019-06-20T17:05:28.491Z,21.80
2019-06-20T17:07:57.887Z,21.80
2019-06-20T17:10:28.133Z,21.80
2019-06-20T17:12:57.520Z,21.90
2019-06-20T17:15:27.315Z,21.80
2019-06-20T17:17:56.698Z,21.70
2019-06-20T17:20:26.144Z,21.70
2019-06-20T17:22:55.525Z,21.70
2019-06-20T17:25:24.899Z,21.60
2019-06-20T17:27:54.284Z,21.70
2019-06-20T17:30:26.070Z,21.50
2019-06-20T17:32:55.453Z,21.40
2019-06-20T17:35:25.237Z,21.50
2019-06-20T17:37:54.686Z,21.60
2019-06-20T17:40:26.083Z,21.40
2019-06-20T17:42:55.518Z,21.40
2019-06-20T17:45:27.710Z,21.20
2019-06-20T17:47:57.171Z,21.20
2019-06-20T17:50:26.720Z,21.00
2019-06-20T17:52:56.100Z,20.90
2019-06-20T17:55:25.475Z,20.70
2019-06-20T17:57:54.851Z,20.60
2019-06-20T18:00:27.840Z,20.50
2019-06-20T18:02:57.226Z,20.50
2019-06-20T18:05:26.767Z,20.30
2019-06-20T18:07:56.158Z,20.30
2019-06-20T18:10:26.140Z,20.20
2019-06-20T18:12:55.498Z,20.20
2019-06-20T18:15:25.149Z,20.10
2019-06-20T18:17:54.531Z,20.30
2019-06-20T18:20:23.916Z,20.30
2019-06-20T18:22:53.308Z,20.20
2019-06-20T18:25:24.337Z,20.10
2019-06-20T18:27:53.778Z,20.00
2019-06-20T18:30:33.399Z,20.00
2019-06-20T18:33:02.783Z,20.00
2019-06-20T18:35:32.351Z,20.00
2019-06-20T18:38:01.728Z,20.10
2019-06-20T18:40:31.111Z,20.10
2019-06-20T18:43:00.552Z,20.10
2019-06-20T18:45:29.935Z,20.00
2019-06-20T18:47:59.378Z,19.90
2019-06-20T18:50:28.768Z,19.90
2019-06-20T18:52:58.141Z,19.70
2019-06-20T18:55:27.537Z,19.70
2019-06-20T18:57:56.976Z,19.60
2019-06-20T19:00:34.719Z,19.50
2019-06-20T19:02:58.766Z,19.50
2019-06-20T19:05:28.313Z,19.50
2019-06-20T19:07:57.711Z,19.50
2019-06-20T19:10:27.526Z,19.40
2019-06-20T19:12:56.901Z,19.30
2019-06-20T19:15:26.780Z,19.20
2019-06-20T19:17:56.633Z,19.20
2019-06-20T19:20:26.244Z,19.20
2019-06-20T19:22:55.632Z,19.10
2019-06-20T19:25:25.007Z,19.00
2019-06-20T19:27:54.385Z,18.90
2019-06-20T19:30:28.378Z,18.80
2019-06-20T19:32:57.760Z,18.70
2019-06-20T19:35:27.145Z,18.60
2019-06-20T19:37:56.807Z,18.60
2019-06-20T19:40:30.760Z,18.50
2019-06-20T19:43:00.213Z,18.40
2019-06-20T19:45:29.574Z,18.40
2019-06-20T19:47:59.025Z,18.40
2019-06-20T19:50:28.497Z,18.30
2019-06-20T19:52:57.891Z,18.20
2019-06-20T19:55:27.263Z,18.10
2019-06-20T19:57:56.694Z,18.10
2019-06-20T20:00:26.355Z,18.00
2019-06-20T20:02:55.736Z,17.90
2019-06-20T20:05:25.254Z,17.80
2019-06-20T20:07:54.806Z,17.80
2019-06-20T20:10:48.341Z,17.70
2019-06-20T20:13:19.031Z,17.70
2019-06-20T20:15:48.606Z,17.60
2019-06-20T20:18:18.323Z,17.50
2019-06-20T20:20:48.406Z,17.50
2019-06-20T20:23:17.852Z,17.40
2019-06-20T20:25:47.397Z,17.30
2019-06-20T20:28:16.775Z,17.30
2019-06-20T20:30:46.211Z,17.20
2019-06-20T20:33:15.606Z,17.20
2019-06-20T20:35:44.964Z,17.10
2019-06-20T20:38:14.420Z,17.10
2019-06-20T20:40:44.639Z,17.00
2019-06-20T20:43:14.314Z,16.90
2019-06-20T20:45:43.747Z,16.90
2019-06-20T20:48:13.139Z,16.80
2019-06-20T20:50:42.787Z,16.80
2019-06-20T20:53:12.227Z,16.70
2019-06-20T20:55:41.605Z,16.70
2019-06-20T20:58:10.997Z,16.70
2019-06-20T21:01:00.187Z,16.60
2019-06-20T21:03:29.547Z,16.50
2019-06-20T21:05:58.918Z,16.50
2019-06-20T21:08:28.660Z,16.40
2019-06-20T21:10:58.043Z,16.30
2019-06-20T21:13:27.417Z,16.30
2019-06-20T21:15:56.795Z,16.30
2019-06-20T21:18:26.179Z,16.20
2019-06-20T21:20:55.566Z,16.20
2019-06-20T21:23:24.965Z,16.10
2019-06-20T21:25:54.358Z,16.10
2019-06-20T21:28:23.729Z,16.10
2019-06-20T21:30:53.138Z,16.00
2019-06-20T21:33:22.561Z,16.00
2019-06-20T21:36:07.205Z,15.90
2019-06-20T21:38:23.049Z,15.90
2019-06-20T21:40:52.422Z,15.80
2019-06-20T21:43:21.816Z,15.80
2019-06-20T21:45:51.192Z,15.70
2019-06-20T21:48:20.566Z,15.70
2019-06-20T21:50:49.939Z,15.60
2019-06-20T21:53:19.316Z,15.60
2019-06-20T21:55:48.687Z,15.60
2019-06-20T21:58:18.070Z,15.50
2019-06-20T22:00:51.670Z,15.50
2019-06-20T22:03:21.104Z,15.40
2019-06-20T22:05:50.432Z,15.40
2019-06-20T22:08:19.809Z,15.30
2019-06-20T22:10:49.216Z,15.20
2019-06-20T22:13:18.590Z,15.20
2019-06-20T22:15:47.967Z,15.20
2019-06-20T22:18:17.348Z,15.10
2019-06-20T22:20:46.725Z,15.00
2019-06-20T22:23:16.095Z,15.00
2019-06-20T22:25:45.478Z,14.90
2019-06-20T22:28:14.854Z,14.80
2019-06-20T22:30:49.173Z,14.80
2019-06-20T22:33:18.552Z,14.70
2019-06-20T22:35:48.359Z,14.70
2019-06-20T22:38:17.800Z,14.60
2019-06-20T22:40:47.682Z,14.60
2019-06-20T22:43:17.214Z,14.50
2019-06-20T22:45:46.823Z,14.50
2019-06-20T22:48:16.429Z,14.50
2019-06-20T22:50:45.830Z,14.50
2019-06-20T22:53:15.356Z,14.40
2019-06-20T22:55:44.734Z,14.40
2019-06-20T22:58:14.135Z,14.40
2019-06-20T23:00:44.252Z,14.30
2019-06-20T23:03:13.996Z,14.30
2019-06-20T23:05:43.400Z,14.20
2019-06-20T23:08:12.779Z,14.20
2019-06-20T23:10:42.150Z,14.20
2019-06-20T23:13:11.533Z,14.10
2019-06-20T23:15:41.321Z,14.10
2019-06-20T23:18:10.694Z,14.10
2019-06-20T23:20:40.584Z,14.10
2019-06-20T23:23:09.959Z,14.00
2019-06-20T23:25:40.972Z,14.00
2019-06-20T23:28:10.351Z,14.00
2019-06-20T23:30:39.731Z,13.90
2019-06-20T23:33:09.104Z,13.90
2019-06-20T23:35:38.482Z,13.80
2019-06-20T23:38:07.955Z,13.80
2019-06-20T23:40:37.328Z,13.70
2019-06-20T23:43:06.973Z,13.70
2019-06-20T23:45:36.345Z,13.70
2019-06-20T23:48:05.977Z,13.60
2019-06-20T23:50:35.355Z,13.60
2019-06-20T23:53:24.247Z,13.60
2019-06-20T23:55:53.783Z,13.50
2019-06-20T23:58:24.180Z,13.50
